Terminal Aerodrome Forecast
Issued by NWS

Home | Current Version | Previous Version | Text Only | Print | Product List | Glossary On
Versions: 1 2 3 4 5 6 7 8 9 10 11 12 13 14 15 16 17 18 19 20
000
FTUS43 KDLH 200520
TAFBRD
TAF
KBRD 200520Z 2006/2106 18009KT P6SM FEW250 WS020/22040KT
     FM201200 17007KT P6SM FEW250
     FM201500 18012G20KT P6SM FEW250
     FM210400 18012KT P6SM SCT050 BKN100 WS020/22040KT=

USA.gov is the U.S. government's official web portal to all federal, state and local government web resources and services.